createdAt,value
2022-07-28T00:00:54.238Z,99.90
2022-07-28T00:03:22.434Z,99.90
2022-07-28T00:05:50.180Z,99.90
2022-07-28T00:10:45.731Z,99.90
2022-07-28T00:15:41.187Z,99.90
2022-07-28T00:18:08.803Z,99.90
2022-07-28T00:23:04.566Z,99.90
2022-07-28T00:25:32.066Z,99.90
2022-07-28T00:28:00.011Z,99.90
2022-07-28T00:30:27.775Z,99.90
2022-07-28T00:32:55.556Z,99.90
2022-07-28T00:35:30.172Z,99.90
2022-07-28T00:38:00.268Z,99.90
2022-07-28T00:40:47.933Z,99.90
2022-07-28T00:43:15.998Z,99.90
2022-07-28T00:45:43.675Z,99.90
2022-07-28T00:48:11.254Z,99.90
2022-07-28T00:50:43.254Z,99.90
2022-07-28T00:53:10.965Z,99.90
2022-07-28T00:56:03.469Z,99.90
2022-07-28T00:58:27.938Z,99.90
2022-07-28T01:00:56.584Z,99.90
2022-07-28T01:03:25.775Z,99.90
2022-07-28T01:06:10.574Z,99.90
2022-07-28T01:09:11.261Z,99.90
2022-07-28T01:12:07.102Z,99.90
2022-07-28T01:14:54.049Z,99.90
2022-07-28T01:17:47.092Z,99.90
2022-07-28T01:20:43.379Z,99.90
2022-07-28T01:23:43.356Z,99.90
2022-07-28T01:26:36.236Z,99.90
2022-07-28T01:29:29.247Z,99.90
2022-07-28T01:32:03.205Z,99.90
2022-07-28T01:34:45.537Z,99.90
2022-07-28T01:37:22.193Z,99.90
2022-07-28T01:39:53.511Z,99.90
2022-07-28T01:42:24.131Z,99.90
2022-07-28T01:44:55.089Z,99.90
2022-07-28T01:47:23.859Z,99.90
2022-07-28T01:49:53.377Z,99.90
2022-07-28T01:52:23.581Z,99.90
2022-07-28T01:54:53.519Z,99.90
2022-07-28T01:57:21.615Z,99.90
2022-07-28T01:59:50.826Z,99.90
2022-07-28T02:02:21.693Z,99.90
2022-07-28T02:04:51.481Z,99.90
2022-07-28T02:07:22.665Z,99.90
2022-07-28T02:09:50.959Z,99.90
2022-07-28T02:12:19.466Z,99.90
2022-07-28T02:14:50.231Z,99.90
2022-07-28T02:17:20.711Z,99.90
2022-07-28T02:19:49.376Z,99.90
2022-07-28T02:22:17.931Z,99.90
2022-07-28T02:24:46.907Z,99.90
2022-07-28T02:27:35.734Z,99.90
2022-07-28T02:30:16.682Z,99.90
2022-07-28T02:33:01.921Z,99.90
2022-07-28T02:35:34.525Z,99.90
2022-07-28T02:38:10.643Z,99.90
2022-07-28T02:40:40.551Z,99.90
2022-07-28T02:43:14.442Z,99.90
2022-07-28T02:45:45.835Z,99.90
2022-07-28T02:48:17.569Z,99.90
2022-07-28T02:50:46.631Z,99.90
2022-07-28T02:53:16.400Z,99.90
2022-07-28T02:55:47.672Z,99.90
2022-07-28T02:58:18.643Z,99.90
2022-07-28T03:00:48.146Z,99.90
2022-07-28T03:03:18.148Z,99.90
2022-07-28T03:05:46.322Z,99.90
2022-07-28T03:08:16.103Z,99.90
2022-07-28T03:10:44.106Z,99.90
2022-07-28T03:13:11.655Z,99.90
2022-07-28T03:15:40.421Z,99.90
2022-07-28T03:18:08.317Z,99.90
2022-07-28T03:20:36.264Z,99.90
2022-07-28T03:23:04.600Z,99.90
2022-07-28T03:25:44.676Z,99.90
2022-07-28T03:28:18.000Z,99.90
2022-07-28T03:30:56.008Z,99.90
2022-07-28T03:33:24.628Z,99.90
2022-07-28T03:35:55.832Z,99.90
2022-07-28T03:38:28.520Z,99.90
2022-07-28T03:40:56.959Z,99.90
2022-07-28T03:43:28.497Z,99.90
2022-07-28T03:45:56.342Z,99.90
2022-07-28T03:48:29.418Z,99.90
2022-07-28T03:50:57.574Z,99.90
2022-07-28T03:53:27.326Z,99.90
2022-07-28T03:55:55.271Z,99.90
2022-07-28T03:58:26.147Z,99.90
2022-07-28T04:00:57.680Z,99.90
2022-07-28T04:03:41.198Z,99.90
2022-07-28T04:06:13.045Z,99.90
2022-07-28T04:08:41.034Z,99.90
2022-07-28T04:11:08.705Z,99.90
2022-07-28T04:13:37.418Z,99.90
2022-07-28T04:16:07.509Z,99.90
2022-07-28T04:18:35.122Z,99.90
2022-07-28T04:21:03.151Z,99.90
2022-07-28T04:26:41.229Z,99.90
2022-07-28T04:29:11.897Z,99.90
2022-07-28T04:31:39.454Z,99.90
2022-07-28T04:34:07.019Z,99.90
2022-07-28T04:36:41.907Z,99.90
2022-07-28T04:39:13.665Z,99.90
2022-07-28T04:41:41.800Z,99.90
2022-07-28T04:44:11.806Z,99.90
2022-07-28T04:46:39.943Z,99.90
2022-07-28T04:49:07.489Z,99.90
2022-07-28T04:51:36.110Z,99.90
2022-07-28T04:54:03.822Z,99.90
2022-07-28T04:56:31.533Z,99.90
2022-07-28T04:58:59.669Z,99.90
2022-07-28T05:01:28.594Z,99.90
2022-07-28T05:03:56.249Z,99.90
2022-07-28T05:06:23.735Z,99.90
2022-07-28T05:08:51.749Z,99.90
2022-07-28T05:11:19.280Z,99.90
2022-07-28T05:13:46.772Z,99.90
2022-07-28T05:16:14.541Z,99.90
2022-07-28T05:18:42.106Z,99.90
2022-07-28T05:21:09.750Z,99.90
2022-07-28T05:23:37.214Z,99.90
2022-07-28T05:26:04.788Z,99.90
2022-07-28T05:28:32.745Z,99.90
2022-07-28T05:31:00.452Z,99.90
2022-07-28T05:33:30.215Z,99.90
2022-07-28T05:36:00.222Z,99.90
2022-07-28T05:40:56.533Z,99.90
2022-07-28T05:43:24.074Z,99.90
2022-07-28T05:45:51.758Z,99.90
2022-07-28T05:48:20.207Z,99.90
2022-07-28T05:50:49.719Z,99.90
2022-07-28T05:53:17.573Z,99.90
2022-07-28T05:55:56.423Z,99.90
2022-07-28T05:58:30.606Z,99.90
2022-07-28T06:01:00.039Z,99.90
2022-07-28T06:03:28.851Z,99.90
2022-07-28T06:06:00.692Z,99.90
2022-07-28T06:08:43.263Z,99.90
2022-07-28T06:11:11.849Z,99.90
2022-07-28T06:13:46.825Z,99.90
2022-07-28T06:16:14.659Z,99.90
2022-07-28T06:18:44.075Z,99.90
2022-07-28T06:21:11.818Z,99.90
2022-07-28T06:23:39.283Z,99.90
2022-07-28T06:26:06.821Z,99.90
2022-07-28T06:28:34.437Z,99.90
2022-07-28T06:31:02.031Z,99.90
2022-07-28T06:33:29.576Z,99.90
2022-07-28T06:35:57.267Z,99.90
2022-07-28T06:38:25.528Z,99.90
2022-07-28T06:40:53.156Z,99.90
2022-07-28T06:43:20.854Z,99.90
2022-07-28T06:45:48.719Z,99.90
2022-07-28T06:48:16.483Z,99.90
2022-07-28T06:50:44.239Z,99.90
2022-07-28T06:53:11.949Z,99.90
2022-07-28T06:55:41.245Z,99.90
2022-07-28T06:58:09.228Z,99.90
2022-07-28T07:00:37.349Z,99.90
2022-07-28T07:03:09.001Z,99.90
2022-07-28T07:05:37.421Z,99.90
2022-07-28T07:08:05.217Z,99.90
2022-07-28T07:10:33.170Z,99.90
2022-07-28T07:13:00.827Z,99.90
2022-07-28T07:15:29.204Z,99.90
2022-07-28T07:17:57.101Z,99.90
2022-07-28T07:20:24.925Z,99.90
2022-07-28T07:22:53.669Z,99.90
2022-07-28T07:25:21.291Z,99.90
2022-07-28T07:27:48.998Z,99.90
2022-07-28T07:30:17.564Z,99.90
2022-07-28T07:32:45.257Z,99.90
2022-07-28T07:35:13.043Z,99.90
2022-07-28T07:37:40.633Z,99.90
2022-07-28T07:40:09.029Z,99.90
2022-07-28T07:42:36.737Z,99.90
2022-07-28T07:45:04.730Z,99.90
2022-07-28T07:47:32.381Z,99.90
2022-07-28T07:50:03.905Z,99.90
2022-07-28T07:52:32.311Z,99.90
2022-07-28T07:55:00.022Z,99.90
2022-07-28T07:57:27.515Z,99.90
2022-07-28T07:59:55.129Z,99.90
2022-07-28T08:02:22.838Z,99.90
2022-07-28T08:04:50.407Z,99.90
2022-07-28T08:07:18.104Z,99.90
2022-07-28T08:09:49.982Z,99.90
2022-07-28T08:12:17.714Z,99.90
2022-07-28T08:14:53.439Z,96.90
2022-07-28T08:17:25.937Z,97.30
2022-07-28T08:19:54.619Z,97.30
2022-07-28T08:22:23.043Z,97.10
2022-07-28T08:24:50.974Z,96.00
2022-07-28T08:27:18.763Z,96.40
2022-07-28T08:29:46.298Z,95.90
2022-07-28T08:32:14.166Z,94.90
2022-07-28T08:34:41.643Z,94.50
2022-07-28T08:37:09.679Z,95.00
2022-07-28T08:39:37.641Z,93.40
2022-07-28T08:42:43.646Z,94.40
2022-07-28T08:45:12.386Z,92.90
2022-07-28T08:48:07.334Z,93.30
2022-07-28T08:50:31.656Z,93.60
2022-07-28T08:53:00.344Z,92.50
2022-07-28T08:55:32.089Z,91.80
2022-07-28T08:58:02.938Z,90.70
2022-07-28T09:00:30.930Z,90.10
2022-07-28T09:02:59.806Z,89.50
2022-07-28T09:05:28.111Z,89.80
2022-07-28T09:07:56.070Z,88.90
2022-07-28T09:10:24.282Z,89.30
2022-07-28T09:12:52.005Z,88.70
2022-07-28T09:15:19.694Z,88.70
2022-07-28T09:17:47.252Z,88.10
2022-07-28T09:20:16.257Z,88.90
2022-07-28T09:23:01.273Z,89.50
2022-07-28T09:25:29.649Z,87.40
2022-07-28T09:28:25.985Z,84.40
2022-07-28T09:30:54.558Z,83.80
2022-07-28T09:33:42.586Z,84.70
2022-07-28T09:36:16.100Z,84.60
2022-07-28T09:38:44.765Z,83.20
2022-07-28T09:41:12.449Z,84.10
2022-07-28T09:43:44.914Z,82.10
2022-07-28T09:46:21.411Z,83.30
2022-07-28T09:48:49.427Z,81.60
2022-07-28T09:51:24.131Z,80.80
2022-07-28T09:53:53.028Z,80.40
2022-07-28T09:56:23.380Z,79.80
2022-07-28T09:58:57.410Z,79.60
2022-07-28T10:01:29.250Z,79.40
2022-07-28T10:04:04.141Z,79.40
2022-07-28T10:06:33.480Z,78.90
2022-07-28T10:09:02.845Z,79.50
2022-07-28T10:11:31.086Z,78.40
2022-07-28T10:14:04.589Z,79.60
2022-07-28T10:16:34.542Z,78.30
2022-07-28T10:19:05.180Z,79.40
2022-07-28T10:21:36.190Z,79.60
2022-07-28T10:24:08.723Z,80.30
2022-07-28T10:26:44.556Z,80.10
2022-07-28T10:29:21.650Z,79.60
2022-07-28T10:31:52.583Z,79.60
2022-07-28T10:34:30.884Z,79.80
2022-07-28T10:37:02.290Z,78.30
2022-07-28T10:39:39.455Z,78.60
2022-07-28T10:42:14.697Z,77.90
2022-07-28T10:44:43.759Z,77.50
2022-07-28T10:47:18.152Z,77.30
2022-07-28T10:49:48.892Z,77.90
2022-07-28T10:55:31.891Z,78.40
2022-07-28T10:58:11.803Z,78.00
2022-07-28T11:01:05.492Z,78.40
2022-07-28T11:03:41.309Z,78.30
2022-07-28T11:06:31.197Z,79.90
2022-07-28T11:09:18.160Z,81.30
2022-07-28T11:11:46.878Z,79.10
2022-07-28T11:14:27.093Z,80.10
2022-07-28T11:17:00.845Z,81.20
2022-07-28T11:20:16.374Z,81.90
2022-07-28T11:22:40.989Z,82.70
2022-07-28T11:25:19.785Z,81.90
2022-07-28T11:27:54.669Z,81.20
2022-07-28T11:30:32.392Z,81.80
2022-07-28T11:33:00.783Z,81.60
2022-07-28T11:35:31.725Z,82.30
2022-07-28T11:38:05.948Z,83.30
2022-07-28T11:40:48.121Z,84.40
2022-07-28T11:43:37.048Z,84.80
2022-07-28T11:46:10.017Z,85.20
2022-07-28T11:48:42.500Z,85.00
2022-07-28T11:51:12.377Z,85.70
2022-07-28T11:53:47.708Z,85.80
2022-07-28T11:56:31.651Z,86.30
2022-07-28T11:59:08.001Z,86.30
2022-07-28T12:01:38.313Z,85.90
2022-07-28T12:04:15.771Z,86.00
2022-07-28T12:06:49.401Z,85.60
2022-07-28T12:09:23.502Z,86.20
2022-07-28T12:11:55.766Z,85.70
2022-07-28T12:14:24.310Z,85.00
2022-07-28T12:16:52.349Z,84.40
2022-07-28T12:19:21.473Z,83.90
2022-07-28T12:21:52.866Z,84.70
2022-07-28T12:24:30.577Z,84.40
2022-07-28T12:27:00.545Z,84.30
2022-07-28T12:29:32.281Z,84.40
2022-07-28T12:32:09.799Z,84.60
2022-07-28T12:34:39.817Z,84.90
2022-07-28T12:37:11.124Z,84.30
2022-07-28T12:39:42.297Z,83.40
2022-07-28T12:42:13.559Z,84.40
2022-07-28T12:44:51.508Z,84.50
2022-07-28T12:47:26.947Z,85.00
2022-07-28T12:50:14.025Z,85.60
2022-07-28T12:53:02.158Z,84.90
2022-07-28T12:55:32.835Z,85.40
2022-07-28T12:58:00.938Z,85.30
2022-07-28T13:00:31.699Z,87.00
2022-07-28T13:03:39.310Z,86.10
2022-07-28T13:06:10.985Z,86.10
2022-07-28T13:08:44.135Z,85.70
2022-07-28T13:11:42.609Z,85.70
2022-07-28T13:14:03.456Z,85.00
2022-07-28T13:16:31.404Z,85.40
2022-07-28T13:19:03.927Z,84.70
2022-07-28T13:21:58.572Z,84.50
2022-07-28T13:24:29.575Z,84.40
2022-07-28T13:26:59.032Z,84.70
2022-07-28T13:29:26.588Z,84.80
2022-07-28T13:31:55.135Z,84.80
2022-07-28T13:34:23.518Z,84.40
2022-07-28T13:36:52.391Z,84.60
2022-07-28T13:39:20.130Z,84.80
2022-07-28T13:41:57.401Z,84.60
2022-07-28T13:44:30.333Z,83.40
2022-07-28T13:46:59.602Z,82.70
2022-07-28T13:49:28.834Z,81.80
2022-07-28T13:51:56.443Z,82.30
2022-07-28T13:54:25.105Z,81.80
2022-07-28T13:56:53.807Z,81.30
2022-07-28T13:59:21.451Z,80.70
2022-07-28T14:01:49.919Z,79.90
2022-07-28T14:04:21.721Z,78.70
2022-07-28T14:06:50.131Z,77.80
2022-07-28T14:09:18.306Z,75.70
2022-07-28T14:11:49.598Z,76.20
2022-07-28T14:14:25.548Z,76.60
2022-07-28T14:16:54.414Z,76.10
2022-07-28T14:19:39.168Z,73.40
2022-07-28T14:22:13.097Z,74.40
2022-07-28T14:24:44.539Z,74.30
2022-07-28T14:27:12.211Z,72.40
2022-07-28T14:29:40.086Z,73.10
2022-07-28T14:32:07.691Z,73.30
2022-07-28T14:34:36.002Z,73.30
2022-07-28T14:37:08.613Z,73.70
2022-07-28T14:39:38.192Z,73.90
2022-07-28T14:42:06.925Z,73.10
2022-07-28T14:44:35.014Z,72.10
2022-07-28T14:47:03.148Z,71.60
2022-07-28T14:49:30.768Z,70.50
2022-07-28T14:51:59.402Z,71.00
2022-07-28T14:54:27.902Z,71.30
2022-07-28T14:56:56.105Z,69.50
2022-07-28T14:59:23.687Z,68.10
2022-07-28T15:01:51.278Z,66.50
2022-07-28T15:04:18.992Z,67.40
2022-07-28T15:06:47.538Z,69.30
2022-07-28T15:09:15.294Z,70.90
2022-07-28T15:11:44.732Z,71.90
2022-07-28T15:14:12.550Z,73.50
2022-07-28T15:16:43.048Z,73.10
2022-07-28T15:19:11.246Z,73.80
2022-07-28T15:21:40.726Z,74.60
2022-07-28T15:24:09.109Z,75.00
2022-07-28T15:26:36.752Z,75.20
2022-07-28T15:29:05.383Z,75.90
2022-07-28T15:31:33.406Z,76.60
2022-07-28T15:34:01.045Z,75.80
2022-07-28T15:36:30.193Z,76.10
2022-07-28T15:38:57.793Z,76.20
2022-07-28T15:41:25.397Z,76.70
2022-07-28T15:43:53.066Z,76.80
2022-07-28T15:46:20.767Z,76.70
2022-07-28T15:48:49.937Z,77.50
2022-07-28T15:51:18.596Z,77.90
2022-07-28T15:53:56.120Z,77.80
2022-07-28T15:56:23.981Z,78.00
2022-07-28T15:58:51.851Z,78.10
2022-07-28T16:01:19.477Z,79.10
2022-07-28T16:03:47.079Z,79.10
2022-07-28T16:06:15.030Z,79.60
2022-07-28T16:08:43.048Z,79.80
2022-07-28T16:11:11.670Z,79.80
2022-07-28T16:13:40.530Z,79.90
2022-07-28T16:16:14.463Z,80.20
2022-07-28T16:18:43.823Z,79.90
2022-07-28T16:21:11.944Z,80.00
2022-07-28T16:23:39.561Z,79.60
2022-07-28T16:26:10.113Z,80.80
2022-07-28T16:28:37.835Z,81.00
2022-07-28T16:31:06.620Z,80.90
2022-07-28T16:33:34.618Z,79.80
2022-07-28T16:36:02.852Z,79.60
2022-07-28T16:38:30.750Z,79.10
2022-07-28T16:40:58.434Z,79.70
2022-07-28T16:43:26.124Z,80.20
2022-07-28T16:45:53.621Z,80.10
2022-07-28T16:48:21.385Z,80.70
2022-07-28T16:50:50.201Z,80.60
2022-07-28T16:53:18.074Z,80.90
2022-07-28T16:55:48.157Z,80.00
2022-07-28T16:58:16.320Z,81.00
2022-07-28T17:00:44.123Z,81.60
2022-07-28T17:03:11.675Z,82.20
2022-07-28T17:05:39.253Z,83.00
2022-07-28T17:08:09.909Z,83.70
2022-07-28T17:10:37.932Z,84.00
2022-07-28T17:13:05.498Z,84.30
2022-07-28T17:15:33.017Z,84.40
2022-07-28T17:18:00.548Z,85.40
2022-07-28T17:20:28.450Z,85.20
2022-07-28T17:22:56.181Z,85.40
2022-07-28T17:28:11.642Z,85.90
2022-07-28T17:30:40.441Z,86.00
2022-07-28T17:33:08.970Z,86.20
2022-07-28T17:35:38.500Z,86.30
2022-07-28T17:38:08.411Z,86.90
2022-07-28T17:40:41.516Z,86.80
2022-07-28T17:43:11.854Z,87.50
2022-07-28T17:45:39.579Z,87.20
2022-07-28T17:48:07.104Z,87.10
2022-07-28T17:50:34.622Z,86.90
2022-07-28T17:53:02.325Z,87.20
2022-07-28T17:55:57.917Z,87.20
2022-07-28T17:58:28.713Z,87.60
2022-07-28T18:01:09.779Z,87.20
2022-07-28T18:03:58.866Z,87.80
2022-07-28T18:06:35.341Z,88.10
2022-07-28T18:09:12.518Z,88.60
2022-07-28T18:11:57.406Z,89.10
2022-07-28T18:14:30.412Z,88.10
2022-07-28T18:16:59.376Z,87.80
2022-07-28T18:19:28.086Z,88.00
2022-07-28T18:21:56.177Z,88.20
2022-07-28T18:24:23.910Z,88.00
2022-07-28T18:26:52.410Z,87.60
2022-07-28T18:29:21.569Z,87.80
2022-07-28T18:31:51.557Z,88.10
2022-07-28T18:34:23.591Z,89.30
2022-07-28T18:36:54.569Z,89.80
2022-07-28T18:39:22.661Z,90.30
2022-07-28T18:41:50.254Z,90.30
2022-07-28T18:44:18.889Z,90.60
2022-07-28T18:46:47.231Z,90.90
2022-07-28T18:49:15.477Z,90.80
2022-07-28T18:51:45.019Z,91.10
2022-07-28T18:54:21.797Z,91.30
2022-07-28T18:56:56.163Z,91.70
2022-07-28T18:59:24.991Z,91.90
2022-07-28T19:01:52.736Z,92.20
2022-07-28T19:04:20.410Z,92.40
2022-07-28T19:06:48.012Z,92.70
2022-07-28T19:09:15.846Z,92.70
2022-07-28T19:11:46.191Z,92.70
2022-07-28T19:14:15.774Z,92.90
2022-07-28T19:16:44.081Z,93.10
2022-07-28T19:19:11.717Z,93.00
2022-07-28T19:21:43.386Z,93.30
2022-07-28T19:24:13.395Z,93.50
2022-07-28T19:26:43.189Z,94.00
2022-07-28T19:29:12.261Z,94.00
2022-07-28T19:31:41.442Z,94.80
2022-07-28T19:34:09.836Z,94.80
2022-07-28T19:36:38.322Z,95.40
2022-07-28T19:39:06.137Z,95.60
2022-07-28T19:41:33.996Z,95.50
2022-07-28T19:44:01.669Z,95.80
2022-07-28T19:46:29.380Z,95.70
2022-07-28T19:48:57.001Z,96.40
2022-07-28T19:51:27.078Z,96.50
2022-07-28T19:53:59.446Z,96.70
2022-07-28T19:56:31.151Z,97.20
2022-07-28T19:59:00.114Z,97.10
2022-07-28T20:01:27.839Z,97.30
2022-07-28T20:04:01.129Z,97.50
2022-07-28T20:06:33.367Z,97.70
2022-07-28T20:09:01.841Z,98.20
2022-07-28T20:11:29.823Z,98.10
2022-07-28T20:13:57.589Z,98.20
2022-07-28T20:16:25.641Z,98.10
2022-07-28T20:18:53.477Z,98.30
2022-07-28T20:21:22.260Z,98.40
2022-07-28T20:23:52.488Z,98.70
2022-07-28T20:26:23.561Z,98.90
2022-07-28T20:28:53.009Z,99.00
2022-07-28T20:31:21.065Z,99.30
2022-07-28T20:33:48.872Z,99.50
2022-07-28T20:36:17.082Z,99.60
2022-07-28T20:38:45.466Z,99.80
2022-07-28T20:41:13.646Z,99.90
2022-07-28T20:43:41.325Z,99.90
2022-07-28T20:46:09.282Z,99.90
2022-07-28T20:48:37.165Z,99.90
2022-07-28T20:51:05.013Z,99.90
2022-07-28T20:53:32.926Z,99.90
2022-07-28T20:56:00.814Z,99.90
2022-07-28T20:58:29.022Z,99.90
2022-07-28T21:00:58.121Z,99.90
2022-07-28T21:03:25.729Z,99.90
2022-07-28T21:05:55.853Z,99.90
2022-07-28T21:08:24.070Z,99.90
2022-07-28T21:10:53.577Z,99.90
2022-07-28T21:13:23.761Z,99.90
2022-07-28T21:15:52.397Z,99.90
2022-07-28T21:18:20.274Z,99.90
2022-07-28T21:20:48.526Z,99.90
2022-07-28T21:23:17.787Z,99.90
2022-07-28T21:25:46.344Z,99.90
2022-07-28T21:28:33.100Z,99.90
2022-07-28T21:31:04.670Z,99.90
2022-07-28T21:33:35.722Z,99.90
2022-07-28T21:36:04.074Z,99.90
2022-07-28T21:38:32.260Z,99.90
2022-07-28T21:41:00.961Z,99.90
2022-07-28T21:43:32.064Z,99.90
2022-07-28T21:45:59.977Z,99.90
2022-07-28T21:48:27.788Z,99.90
2022-07-28T21:50:55.278Z,99.90
2022-07-28T21:53:23.258Z,99.90
2022-07-28T21:55:52.789Z,99.90
2022-07-28T21:58:20.412Z,99.90
2022-07-28T22:00:48.193Z,99.90
2022-07-28T22:03:16.280Z,99.90
2022-07-28T22:05:43.875Z,99.90
2022-07-28T22:08:11.604Z,99.90
2022-07-28T22:10:39.209Z,99.90
2022-07-28T22:13:06.831Z,99.90
2022-07-28T22:15:34.415Z,99.90
2022-07-28T22:18:02.202Z,99.90
2022-07-28T22:20:29.925Z,99.90
2022-07-28T22:22:57.665Z,99.90
2022-07-28T22:25:25.265Z,99.90
2022-07-28T22:27:52.839Z,99.90
2022-07-28T22:30:20.952Z,99.90
2022-07-28T22:32:48.708Z,99.90
2022-07-28T22:35:16.304Z,99.90
2022-07-28T22:37:46.080Z,99.90
2022-07-28T22:40:14.421Z,99.90
2022-07-28T22:42:42.494Z,99.90
2022-07-28T22:45:11.265Z,99.90
2022-07-28T22:47:39.003Z,99.90
2022-07-28T22:50:07.326Z,99.90
2022-07-28T22:52:35.264Z,99.90
2022-07-28T22:57:48.459Z,99.90
2022-07-28T23:00:16.324Z,99.90
2022-07-28T23:02:46.125Z,99.90
2022-07-28T23:05:14.987Z,99.90
2022-07-28T23:07:53.544Z,99.90
2022-07-28T23:10:25.267Z,99.90
2022-07-28T23:12:54.209Z,99.90
2022-07-28T23:15:23.997Z,99.90
2022-07-28T23:18:07.652Z,99.90
2022-07-28T23:20:35.314Z,99.90
2022-07-28T23:23:03.210Z,99.90
2022-07-28T23:25:30.855Z,99.90
2022-07-28T23:27:58.786Z,99.90
2022-07-28T23:30:26.369Z,99.90
2022-07-28T23:32:54.781Z,99.90
2022-07-28T23:35:22.596Z,99.90
2022-07-28T23:37:50.353Z,99.90
2022-07-28T23:40:18.040Z,99.90
2022-07-28T23:42:45.619Z,99.90
2022-07-28T23:45:14.158Z,99.90
2022-07-28T23:47:41.845Z,99.90
2022-07-28T23:50:09.661Z,99.90
2022-07-28T23:52:37.169Z,99.90
2022-07-28T23:55:05.582Z,99.90
2022-07-28T23:57:33.261Z,99.90
